Time;durP1;ratioP1;P1;durP2;ratioP2;P2;SDS_P1;SDS_P2;PMS_P1;PMS_P2;Temp;Humidity;BMP_temperature;BMP_pressure;BME280_temperature;BME280_humidity;BME280_pressure;Samples;Min_cycle;Max_cycle;Signal;HPM_P1;HPM_P2
2022/12/17 13:06:10;;;;;;;17.67;6.20;;;16.70;99.90;;;;;;5030629;28;20044;-72
2022/12/17 13:09:14;;;;;;;10.80;5.80;;;16.80;99.90;;;;;;5030809;28;20052;-72
2022/12/17 13:12:24;;;;;;;18.92;10.20;;;16.90;99.90;;;;;;5041172;28;20036;-73
2022/12/17 13:15:39;;;;;;;16.83;7.30;;;16.90;99.90;;;;;;5030687;28;20358;-72
2022/12/17 13:18:43;;;;;;;13.35;9.35;;;16.90;99.90;;;;;;5030328;28;20049;-73
2022/12/17 13:21:47;;;;;;;16.52;9.52;;;16.90;99.90;;;;;;5030889;28;20052;-73
2022/12/17 13:25:12;;;;;;;21.08;8.80;;;16.80;99.90;;;;;;5030591;28;20048;-73
2022/12/17 13:28:29;;;;;;;16.40;9.02;;;16.60;99.90;;;;;;5033185;28;20057;-72
2022/12/17 13:32:00;;;;;;;16.45;10.48;;;16.50;99.90;;;;;;5033476;28;20044;-74
2022/12/17 13:35:33;;;;;;;21.73;9.93;;;16.30;99.90;;;;;;5033947;28;20052;-73
2022/12/17 13:38:55;;;;;;;14.20;7.70;;;16.20;99.90;;;;;;5033822;28;20053;-73
2022/12/17 13:41:59;;;;;;;11.95;5.95;;;16.20;99.90;;;;;;5044385;28;20048;-74
2022/12/17 13:45:04;;;;;;;20.38;9.23;;;16.20;99.90;;;;;;5044448;28;20392;-74
2022/12/17 13:48:20;;;;;;;14.55;6.05;;;16.10;99.90;;;;;;5033714;28;20056;-75
2022/12/17 13:51:27;;;;;;;10.43;5.47;;;16.20;99.90;;;;;;5032924;28;20065;-73
2022/12/17 13:54:31;;;;;;;11.43;4.68;;;16.10;99.90;;;;;;5033508;28;20061;-72
2022/12/17 13:57:37;;;;;;;16.60;8.88;;;16.20;99.90;;;;;;5033562;28;20053;-72
2022/12/17 14:00:41;;;;;;;19.05;10.05;;;16.20;99.90;;;;;;5033347;28;20508;-73
2022/12/17 14:03:54;;;;;;;11.55;5.47;;;16.20;99.90;;;;;;5033123;28;20048;-74
2022/12/17 14:07:03;;;;;;;15.45;8.18;;;16.30;99.90;;;;;;5033273;28;20052;-75
2022/12/17 14:10:15;;;;;;;11.07;5.03;;;16.30;99.90;;;;;;5033182;28;20068;-70
2022/12/17 14:13:19;;;;;;;9.38;4.10;;;16.30;99.90;;;;;;5033806;28;20053;-72
2022/12/17 14:16:23;;;;;;;6.45;3.80;;;16.30;99.90;;;;;;5033167;28;20048;-72
2022/12/17 14:19:28;;;;;;;7.55;3.65;;;16.30;99.90;;;;;;5033270;28;20045;-72
2022/12/17 14:22:38;;;;;;;7.00;3.90;;;16.30;99.90;;;;;;5033140;28;20052;-71
2022/12/17 14:25:43;;;;;;;11.70;4.22;;;16.20;99.90;;;;;;5032871;28;20041;-71
2022/12/17 14:28:53;;;;;;;10.65;4.90;;;16.20;99.90;;;;;;5032852;28;20052;-71
2022/12/17 14:31:59;;;;;;;10.10;4.38;;;16.30;99.90;;;;;;5033138;28;20044;-71
2022/12/17 14:35:04;;;;;;;6.22;3.60;;;16.30;99.90;;;;;;5032581;28;20049;-72
2022/12/17 14:38:16;;;;;;;12.43;3.80;;;16.30;99.90;;;;;;5031999;28;20488;-70
2022/12/17 14:45:21;;;;;;;9.10;3.30;;;16.20;99.90;;;;;;5032080;28;20048;-71
2022/12/17 14:51:48;;;;;;;7.07;3.75;;;16.30;99.90;;;;;;5031334;28;20052;-72
2022/12/17 14:54:52;;;;;;;7.93;4.22;;;16.30;99.90;;;;;;5031492;28;20397;-72
2022/12/17 14:58:15;;;;;;;11.15;5.05;;;16.30;99.90;;;;;;5031226;28;20044;-71
2022/12/17 15:01:18;;;;;;;11.15;5.78;;;16.20;99.90;;;;;;5032243;28;20044;-72
2022/12/17 15:04:22;;;;;;;9.68;5.35;;;16.20;99.90;;;;;;5032118;28;20041;-71
2022/12/17 15:07:29;;;;;;;11.00;4.75;;;16.20;99.90;;;;;;5032357;28;20045;-71
2022/12/17 15:10:33;;;;;;;8.63;4.55;;;16.20;99.90;;;;;;5031862;28;20040;-72
2022/12/17 15:13:36;;;;;;;8.60;5.00;;;16.20;99.90;;;;;;5032170;28;20036;-72
2022/12/17 15:16:40;;;;;;;16.70;5.07;;;16.20;99.90;;;;;;5032128;28;20040;-72
2022/12/17 15:19:45;;;;;;;8.70;4.60;;;16.10;99.90;;;;;;5031640;28;20059;-72
2022/12/17 15:22:49;;;;;;;11.45;5.10;;;16.10;99.90;;;;;;5031790;28;20040;-72
2022/12/17 15:25:53;;;;;;;18.65;6.68;;;16.10;99.90;;;;;;5031944;28;20056;-72
2022/12/17 15:28:57;;;;;;;11.20;6.20;;;16.10;99.90;;;;;;5031600;28;20056;-71
2022/12/17 15:32:02;;;;;;;11.82;6.80;;;16.10;99.90;;;;;;5032015;28;20040;-72
2022/12/17 15:35:07;;;;;;;12.55;5.97;;;16.00;99.90;;;;;;5031713;28;20048;-72
2022/12/17 15:38:11;;;;;;;12.45;7.38;;;16.00;99.90;;;;;;5031677;28;20052;-71
2022/12/17 15:44:38;;;;;;;22.17;13.95;;;16.00;99.90;;;;;;5031472;28;20048;-72
2022/12/17 15:47:42;;;;;;;26.40;17.02;;;16.00;99.90;;;;;;5031353;28;20441;-72
2022/12/17 15:50:48;;;;;;;25.35;17.52;;;16.00;99.90;;;;;;5030602;28;20041;-71
2022/12/17 15:53:53;;;;;;;27.55;18.30;;;15.90;99.90;;;;;;5031305;28;20408;-72
2022/12/17 15:56:57;;;;;;;32.30;22.42;;;15.90;99.90;;;;;;5031302;28;20041;-72
2022/12/17 16:00:01;;;;;;;34.45;22.20;;;15.90;99.90;;;;;;5031341;28;20044;-71
2022/12/17 16:03:07;;;;;;;39.75;23.48;;;15.80;99.90;;;;;;5031749;28;20048;-71
2022/12/17 16:06:12;;;;;;;40.45;26.10;;;15.70;99.90;;;;;;5032131;28;20053;-72
2022/12/17 16:09:16;;;;;;;38.75;23.58;;;15.60;99.90;;;;;;5030963;28;20508;-71
2022/12/17 16:12:20;;;;;;;36.67;22.65;;;15.40;99.90;;;;;;5031046;28;20044;-72
2022/12/17 16:15:27;;;;;;;45.88;26.45;;;15.30;99.90;;;;;;5030929;28;20044;-72
2022/12/17 16:18:31;;;;;;;37.40;24.13;;;15.30;99.90;;;;;;5030922;28;20040;-71
2022/12/17 16:21:35;;;;;;;30.15;20.85;;;15.10;99.90;;;;;;5031060;28;20044;-72
2022/12/17 16:24:39;;;;;;;33.15;22.65;;;15.10;99.90;;;;;;5031291;28;20037;-72
2022/12/17 16:27:44;;;;;;;40.05;28.48;;;15.10;99.90;;;;;;5030887;28;20037;-72
2022/12/17 16:31:01;;;;;;;54.83;39.22;;;15.10;99.90;;;;;;5040943;28;20048;-72
2022/12/17 16:34:10;;;;;;;51.80;29.75;;;15.10;99.90;;;;;;5030746;28;20052;-71
2022/12/17 16:37:14;;;;;;;59.42;40.22;;;15.00;99.90;;;;;;5030821;28;20052;-68
2022/12/17 16:40:18;;;;;;;50.03;34.47;;;15.00;99.90;;;;;;5030604;28;20040;-68
2022/12/17 16:43:26;;;;;;;59.55;39.83;;;14.80;99.90;;;;;;5030952;28;20609;-68
2022/12/17 16:46:34;;;;;;;75.07;50.83;;;14.80;99.90;;;;;;5030467;28;20053;-67
2022/12/17 16:49:38;;;;;;;62.40;43.28;;;14.70;99.90;;;;;;5030756;28;20061;-69
2022/12/17 16:52:42;;;;;;;61.67;43.72;;;14.60;99.90;;;;;;5030442;28;20048;-68
2022/12/17 16:55:47;;;;;;;65.03;41.67;;;14.60;99.90;;;;;;5040887;28;20469;-68
2022/12/17 16:58:55;;;;;;;59.58;39.47;;;14.60;99.90;;;;;;5030115;28;20374;-70
2022/12/17 17:01:59;;;;;;;58.33;37.75;;;14.60;99.90;;;;;;5032396;28;20629;-69
2022/12/17 17:05:03;;;;;;;43.35;31.40;;;14.60;99.90;;;;;;5033536;28;20041;-69
2022/12/17 17:08:08;;;;;;;49.42;32.42;;;14.60;99.90;;;;;;5034111;28;20060;-68
2022/12/17 17:11:14;;;;;;;39.67;28.27;;;14.50;99.90;;;;;;5034007;28;20424;-68
2022/12/17 17:14:18;;;;;;;37.83;25.05;;;14.40;99.90;;;;;;5034275;28;20068;-70
2022/12/17 17:17:22;;;;;;;31.67;22.20;;;14.40;99.90;;;;;;5034089;28;20037;-69
2022/12/17 17:20:26;;;;;;;33.00;22.60;;;14.40;99.90;;;;;;5033949;28;20040;-69
2022/12/17 17:23:30;;;;;;;37.08;24.20;;;14.50;99.90;;;;;;5033880;28;20044;-69
2022/12/17 17:26:35;;;;;;;37.15;24.80;;;14.60;99.90;;;;;;5033664;28;20064;-69
2022/12/17 17:29:39;;;;;;;36.47;23.98;;;14.60;99.90;;;;;;5033671;28;20504;-68
2022/12/17 17:32:42;;;;;;;43.80;27.42;;;14.60;99.90;;;;;;5033594;28;20508;-67
2022/12/17 17:35:46;;;;;;;46.38;30.33;;;14.50;99.90;;;;;;5033580;28;20069;-69
2022/12/17 17:38:52;;;;;;;40.78;27.40;;;14.40;99.90;;;;;;5044515;28;20048;-69
2022/12/17 17:41:56;;;;;;;47.85;32.50;;;14.40;99.90;;;;;;5033520;28;20057;-70
2022/12/17 17:45:02;;;;;;;49.13;30.85;;;14.30;99.90;;;;;;5033519;28;20056;-69
2022/12/17 17:48:05;;;;;;;48.03;32.05;;;14.40;99.90;;;;;;5033688;28;20413;-69
2022/12/17 17:51:18;;;;;;;41.97;29.65;;;14.30;99.90;;;;;;5033289;28;20052;-69
2022/12/17 17:54:23;;;;;;;47.58;35.20;;;14.40;99.90;;;;;;5032537;28;20041;-68
2022/12/17 17:57:26;;;;;;;59.00;40.40;;;14.40;99.90;;;;;;5033370;28;20609;-69
2022/12/17 18:00:30;;;;;;;65.75;41.88;;;14.40;99.90;;;;;;5033323;28;20052;-70
2022/12/17 18:03:34;;;;;;;64.45;42.38;;;13.90;99.90;;;;;;5033277;28;20045;-68
2022/12/17 18:06:41;;;;;;;61.03;44.03;;;14.30;99.90;;;;;;5032975;28;20036;-68
2022/12/17 18:09:45;;;;;;;56.70;40.88;;;14.10;99.90;;;;;;5043252;28;20053;-69
2022/12/17 18:16:12;;;;;;;51.03;34.88;;;13.90;99.90;;;;;;5033122;28;20496;-69
2022/12/17 18:19:19;;;;;;;59.80;39.03;;;13.80;99.90;;;;;;5032641;28;20048;-69
2022/12/17 18:22:23;;;;;;;51.10;36.58;;;13.80;99.90;;;;;;5032671;28;20068;-69
2022/12/17 18:25:27;;;;;;;69.40;43.65;;;13.70;99.90;;;;;;5033074;28;20037;-69
2022/12/17 18:28:32;;;;;;;78.35;52.58;;;13.60;99.90;;;;;;5043003;28;20068;-69
2022/12/17 18:31:36;;;;;;;84.43;55.03;;;13.60;99.90;;;;;;5032442;28;20393;-69
2022/12/17 18:34:40;;;;;;;92.43;58.90;;;13.50;99.90;;;;;;5032578;28;20120;-68
2022/12/17 18:37:44;;;;;;;88.00;59.00;;;13.60;99.90;;;;;;5032396;28;20044;-68
2022/12/17 18:40:48;;;;;;;83.25;55.95;;;13.60;99.90;;;;;;5032086;28;20389;-68
2022/12/17 18:43:51;;;;;;;65.45;46.92;;;13.60;99.90;;;;;;5032373;28;20044;-69
2022/12/17 18:46:55;;;;;;;63.20;43.53;;;13.70;99.90;;;;;;5042574;28;20044;-69
2022/12/17 18:49:59;;;;;;;58.00;39.83;;;13.70;99.90;;;;;;5031894;28;20049;-69
2022/12/17 18:53:04;;;;;;;66.85;45.05;;;13.60;99.90;;;;;;5030887;28;20393;-69
2022/12/17 18:56:11;;;;;;;63.25;43.78;;;13.40;99.90;;;;;;5031475;28;20052;-68
2022/12/17 18:59:18;;;;;;;58.05;38.55;;;13.30;99.90;;;;;;5031649;28;20064;-69
2022/12/17 19:02:22;;;;;;;62.90;41.35;;;13.30;99.90;;;;;;5031623;28;20044;-69
2022/12/17 19:05:26;;;;;;;57.08;39.05;;;13.10;99.90;;;;;;5042769;28;20425;-69
2022/12/17 19:08:33;;;;;;;56.25;40.15;;;13.40;99.90;;;;;;5031503;28;20532;-69
2022/12/17 19:11:38;;;;;;;64.07;42.08;;;13.50;99.90;;;;;;5031926;28;20044;-68
2022/12/17 19:14:42;;;;;;;65.63;45.10;;;13.50;99.90;;;;;;5031833;28;20045;-70
2022/12/17 19:17:49;;;;;;;69.38;49.58;;;13.40;99.90;;;;;;5031719;28;20040;-68
2022/12/17 19:20:58;;;;;;;83.18;51.53;;;13.40;99.90;;;;;;5031742;28;20520;-68
2022/12/17 19:24:05;;;;;;;68.90;47.10;;;13.10;99.90;;;;;;5031128;28;20044;-69
2022/12/17 19:27:28;;;;;;;83.57;59.50;;;14.60;99.90;;;;;;5031494;28;20064;-69
2022/12/17 19:30:31;;;;;;;81.93;54.50;;;13.40;99.90;;;;;;5031280;28;20072;-69
2022/12/17 19:33:36;;;;;;;89.18;59.75;;;13.40;99.90;;;;;;5031213;28;20036;-69
2022/12/17 19:36:40;;;;;;;95.78;66.40;;;13.40;99.90;;;;;;5031001;28;20048;-69
2022/12/17 19:39:44;;;;;;;89.40;61.22;;;13.40;99.90;;;;;;5030620;28;20036;-68
2022/12/17 19:42:48;;;;;;;91.40;61.38;;;13.90;99.90;;;;;;5031387;28;20044;-68
2022/12/17 19:45:52;;;;;;;91.47;61.28;;;13.10;99.90;;;;;;5031074;28;20037;-68
2022/12/17 19:48:57;;;;;;;85.75;60.65;;;11.70;99.90;;;;;;5041454;28;20068;-68
2022/12/17 19:52:00;;;;;;;92.93;59.38;;;12.00;99.90;;;;;;5030970;28;20033;-68
2022/12/17 19:55:04;;;;;;;94.35;66.78;;;12.80;99.90;;;;;;5030873;28;20531;-68
2022/12/17 19:58:09;;;;;;;98.00;68.43;;;12.80;99.90;;;;;;5029607;28;20040;-69
2022/12/17 20:01:16;;;;;;;105.15;74.72;;;17.50;99.90;;;;;;5030972;28;20048;-68
2022/12/17 20:04:20;;;;;;;87.82;65.63;;;12.40;99.90;;;;;;5030109;28;20044;-68
2022/12/17 20:07:24;;;;;;;84.90;61.53;;;12.80;99.90;;;;;;5030766;28;20413;-68
2022/12/17 20:10:28;;;;;;;85.07;60.92;;;12.90;99.90;;;;;;5030370;28;20523;-69
2022/12/17 20:13:31;;;;;;;85.03;60.22;;;12.80;99.90;;;;;;5029936;28;20048;-69
2022/12/17 20:16:38;;;;;;;81.22;59.67;;;12.70;99.90;;;;;;5030595;28;20048;-69
2022/12/17 20:19:43;;;;;;;98.10;64.55;;;;;;;;;;5030195;28;20511;-69
2022/12/17 20:22:46;;;;;;;112.90;80.78;;;12.50;99.90;;;;;;5030506;28;20048;-69
2022/12/17 20:26:00;;;;;;;111.72;76.72;;;12.60;99.90;;;;;;5041107;28;20437;-69
2022/12/17 20:29:05;;;;;;;113.10;81.55;;;15.30;99.90;;;;;;5029575;28;20393;-69
2022/12/17 20:32:08;;;;;;;110.88;77.55;;;12.50;99.90;;;;;;5030223;28;20045;-68
2022/12/17 20:35:13;;;;;;;115.65;83.15;;;;;;;;;;5030382;28;20045;-69
2022/12/17 20:38:17;;;;;;;112.43;80.10;;;;;;;;;;5034732;28;20048;-68
2022/12/17 20:41:24;;;;;;;115.47;80.90;;;12.50;99.90;;;;;;5034554;28;20060;-69
2022/12/17 20:44:27;;;;;;;106.57;77.80;;;12.60;99.90;;;;;;5033506;28;20393;-68
2022/12/17 20:47:32;;;;;;;98.32;71.50;;;;;;;;;;5033382;28;20048;-68
2022/12/17 20:50:39;;;;;;;109.03;74.90;;;13.10;99.90;;;;;;5034300;28;20052;-68
2022/12/17 20:53:44;;;;;;;107.00;76.18;;;15.40;99.90;;;;;;5034238;28;20385;-68
2022/12/17 20:56:48;;;;;;;104.13;71.30;;;13.60;99.90;;;;;;5034020;28;20508;-68
2022/12/17 20:59:53;;;;;;;93.07;65.05;;;;;;;;;;5033880;28;20036;-69
2022/12/17 21:02:58;;;;;;;102.25;64.30;;;14.70;99.90;;;;;;5033829;28;20068;-69
2022/12/17 21:06:06;;;;;;;82.72;59.03;;;14.80;99.90;;;;;;5034220;28;20472;-69
2022/12/17 21:09:11;;;;;;;90.38;60.58;;;12.40;99.90;;;;;;5033970;28;20060;-69
2022/12/17 21:12:15;;;;;;;95.53;66.30;;;;;;;;;;5034048;28;20060;-70
2022/12/17 21:15:20;;;;;;;103.32;67.13;;;;;;;;;;5034362;28;20393;-68
2022/12/17 21:18:25;;;;;;;100.60;64.43;;;12.30;99.90;;;;;;5034204;28;20492;-68
2022/12/17 21:21:32;;;;;;;96.22;65.60;;;12.10;99.90;;;;;;5033989;28;20068;-69
2022/12/17 21:24:36;;;;;;;85.72;59.42;;;;;;;;;;5034391;28;20052;-69
2022/12/17 21:27:40;;;;;;;92.47;61.45;;;;;;;;;;5034015;28;20401;-69
2022/12/17 21:30:45;;;;;;;85.97;58.38;;;;;;;;;;5033716;28;20053;-68
2022/12/17 21:33:51;;;;;;;79.20;55.55;;;12.80;99.90;;;;;;5033405;28;20048;-68
2022/12/17 21:36:55;;;;;;;86.07;58.17;;;;;;;;;;5033891;28;20049;-69
2022/12/17 21:40:00;;;;;;;94.80;59.22;;;;;;;;;;5033322;28;20405;-68
2022/12/17 21:43:05;;;;;;;93.57;62.25;;;;;;;;;;5044366;28;20508;-69
2022/12/17 21:46:10;;;;;;;88.60;60.08;;;12.30;99.90;;;;;;5033484;28;20040;-69
2022/12/17 21:49:14;;;;;;;90.18;59.38;;;10.10;99.90;;;;;;5033534;28;20436;-69
2022/12/17 21:52:18;;;;;;;89.85;60.08;;;;;;;;;;5033676;28;20052;-68
2022/12/17 21:55:22;;;;;;;99.05;66.35;;;;;;;;;;5033266;28;20389;-68
2022/12/17 21:58:26;;;;;;;94.63;64.57;;;;;;;;;;5032804;28;20048;-68
2022/12/17 22:01:33;;;;;;;108.07;70.13;;;13.50;99.90;;;;;;5033273;28;20044;-68
2022/12/17 22:04:37;;;;;;;98.22;67.82;;;;;;;;;;5033529;28;20052;-69
2022/12/17 22:07:42;;;;;;;95.97;65.70;;;;;;;;;;5032596;28;20053;-69
2022/12/17 22:10:46;;;;;;;94.55;65.28;;;;;;;;;;5032975;28;20072;-69
2022/12/17 22:14:08;;;;;;;103.30;69.43;;;11.90;99.90;;;;;;5033229;28;20064;-68
2022/12/17 22:17:12;;;;;;;99.50;69.72;;;;;;;;;;5033232;28;20053;-68
2022/12/17 22:20:17;;;;;;;97.70;67.78;;;;;;;;;;5033146;28;20501;-69
2022/12/17 22:23:21;;;;;;;98.35;64.40;;;;;;;;;;5033083;28;20052;-69
2022/12/17 22:26:26;;;;;;;103.15;68.35;;;;;;;;;;5033084;28;20066;-68
2022/12/17 22:33:01;;;;;;;107.93;75.50;;;;;;;;;;5043777;28;20397;-69
2022/12/17 22:36:05;;;;;;;;;;;10.90;99.90;;;;;;5033449;28;20512;-68
2022/12/17 22:39:11;;;;;;;123.18;82.38;;;11.90;99.90;;;;;;5032766;28;20353;-68
2022/12/17 22:45:40;;;;;;;108.95;76.05;;;14.00;99.90;;;;;;5032840;28;20052;-68
2022/12/17 22:48:44;;;;;;;106.43;71.20;;;12.00;99.90;;;;;;5032354;28;20052;-69
2022/12/17 22:51:48;;;;;;;103.38;69.40;;;;;;;;;;5032544;28;20072;-68
2022/12/17 22:55:14;;;;;;;110.85;71.68;;;12.10;99.90;;;;;;5032210;28;20068;-68
2022/12/17 22:58:19;;;;;;;114.00;79.32;;;;;;;;;;5031997;28;20040;-69
2022/12/17 23:01:23;;;;;;;113.35;77.75;;;;;;;;;;5032336;28;20048;-67
2022/12/17 23:04:27;;;;;;;95.13;62.05;;;;;;;;;;5032050;28;20504;-68
2022/12/17 23:07:31;;;;;;;108.68;73.32;;;11.80;99.90;;;;;;5032131;28;20346;-68
2022/12/17 23:10:36;;;;;;;109.93;70.75;;;;;;;;;;5031995;28;20398;-69
2022/12/17 23:13:40;;;;;;;106.47;69.95;;;12.30;99.90;;;;;;5031601;28;20381;-69
2022/12/17 23:16:45;;;;;;;105.50;67.43;;;;;;;;;;5031824;28;20052;-69
2022/12/17 23:19:49;;;;;;;98.03;67.40;;;;;;;;;;5042486;28;20512;-68
2022/12/17 23:22:53;;;;;;;111.28;73.97;;;;;;;;;;5031605;28;20405;-69
2022/12/17 23:25:58;;;;;;;103.35;69.22;;;;;;;;;;5031506;28;20128;-69
2022/12/17 23:29:05;;;;;;;97.10;66.70;;;11.70;99.90;;;;;;5031422;28;20044;-69
2022/12/17 23:32:10;;;;;;;98.78;67.72;;;11.70;99.90;;;;;;5042286;28;20053;-69
2022/12/17 23:35:14;;;;;;;87.05;59.35;;;11.50;99.90;;;;;;5031786;28;20048;-69
2022/12/17 23:38:18;;;;;;;79.28;51.60;;;;;;;;;;5031731;28;20244;-69
2022/12/17 23:41:25;;;;;;;73.05;46.50;;;11.80;99.90;;;;;;5030635;28;20041;-68
2022/12/17 23:44:30;;;;;;;65.57;43.60;;;;;;;;;;5031757;28;20045;-69
2022/12/17 23:47:34;;;;;;;64.40;41.78;;;;;;;;;;5031852;28;20456;-68
2022/12/17 23:50:38;;;;;;;57.03;37.92;;;;;;;;;;5031609;28;20409;-69
2022/12/17 23:53:42;;;;;;;62.45;41.60;;;11.80;99.90;;;;;;5031515;28;20496;-68
2022/12/17 23:56:47;;;;;;;54.08;36.83;;;;;;;;;;5031291;28;20057;-68
2022/12/17 23:59:51;;;;;;;47.70;31.92;;;;;;;;;;5031204;28;20040;-69
